createdAt,value
2018-11-11T00:02:15.996Z,10.50
2018-11-11T00:05:49.225Z,10.40
2018-11-11T00:09:22.457Z,10.50
2018-11-11T00:12:55.677Z,10.40
2018-11-11T00:16:29.108Z,10.30
2018-11-11T00:20:02.328Z,10.30
2018-11-11T00:23:35.585Z,10.20
2018-11-11T00:27:08.806Z,10.30
2018-11-11T00:30:42.069Z,10.40
2018-11-11T00:34:15.558Z,10.40
2018-11-11T00:37:49.692Z,10.40
2018-11-11T00:41:22.993Z,10.40
2018-11-11T00:44:56.208Z,10.40
2018-11-11T00:48:29.461Z,10.40
2018-11-11T00:52:02.709Z,10.40
2018-11-11T00:55:40.641Z,10.40
2018-11-11T00:59:13.879Z,10.40
2018-11-11T01:02:47.447Z,10.40
2018-11-11T01:06:20.710Z,10.40
2018-11-11T01:09:53.923Z,10.50
2018-11-11T01:13:27.152Z,10.50
2018-11-11T01:17:00.384Z,10.60
2018-11-11T01:20:33.838Z,10.60
2018-11-11T01:24:07.069Z,10.60
2018-11-11T01:27:40.308Z,10.60
2018-11-11T01:31:13.540Z,10.60
2018-11-11T01:34:46.752Z,10.60
2018-11-11T01:38:19.984Z,10.60
2018-11-11T01:41:53.209Z,10.60
2018-11-11T01:45:26.416Z,10.60
2018-11-11T01:48:59.659Z,10.50
2018-11-11T01:52:32.893Z,10.50
2018-11-11T01:56:06.527Z,10.50
2018-11-11T01:59:39.759Z,10.50
2018-11-11T02:03:12.997Z,10.50
2018-11-11T02:06:46.223Z,10.50
2018-11-11T02:10:19.449Z,10.50
2018-11-11T02:13:52.710Z,10.50
2018-11-11T02:17:25.951Z,10.50
2018-11-11T02:20:59.225Z,10.50
2018-11-11T02:24:32.405Z,10.50
2018-11-11T02:28:05.621Z,10.60
2018-11-11T02:31:38.860Z,10.60
2018-11-11T02:35:12.336Z,10.60
2018-11-11T02:38:45.579Z,10.60
2018-11-11T02:42:18.808Z,10.60
2018-11-11T02:45:52.034Z,10.70
2018-11-11T02:49:25.284Z,10.70
2018-11-11T02:52:58.517Z,10.70
2018-11-11T02:56:31.739Z,10.70
2018-11-11T03:00:07.389Z,10.70
2018-11-11T03:03:40.621Z,10.70
2018-11-11T03:07:13.860Z,10.70
2018-11-11T03:10:47.091Z,10.70
2018-11-11T03:14:20.320Z,10.60
2018-11-11T03:17:53.529Z,10.60
2018-11-11T03:21:26.764Z,10.60
2018-11-11T03:24:59.992Z,10.50
2018-11-11T03:28:33.216Z,10.50
2018-11-11T03:32:06.440Z,10.50
2018-11-11T03:35:39.679Z,10.50
2018-11-11T03:39:12.917Z,10.40
2018-11-11T03:42:46.581Z,10.50
2018-11-11T03:46:19.809Z,10.50
2018-11-11T03:49:53.060Z,10.50
2018-11-11T03:53:26.287Z,10.50
2018-11-11T03:56:59.521Z,10.60
2018-11-11T04:00:32.747Z,10.60
2018-11-11T04:04:06.160Z,10.60
2018-11-11T04:07:39.901Z,10.50
2018-11-11T04:11:13.150Z,10.50
2018-11-11T04:14:46.393Z,10.50
2018-11-11T04:18:19.609Z,10.50
2018-11-11T04:21:52.851Z,10.50
2018-11-11T04:25:26.086Z,10.50
2018-11-11T04:28:59.320Z,10.40
2018-11-11T04:32:32.553Z,10.40
2018-11-11T04:36:05.777Z,10.40
2018-11-11T04:39:39.300Z,10.30
2018-11-11T04:43:12.516Z,10.30
2018-11-11T04:46:45.739Z,10.20
2018-11-11T04:50:18.972Z,10.30
2018-11-11T04:53:52.189Z,10.30
2018-11-11T04:57:25.417Z,10.30
2018-11-11T05:00:58.642Z,10.40
2018-11-11T05:04:31.884Z,10.40
2018-11-11T05:08:05.199Z,10.40
2018-11-11T05:11:38.628Z,10.40
2018-11-11T05:15:12.935Z,10.40
2018-11-11T05:18:46.152Z,10.50
2018-11-11T05:22:19.378Z,10.50
2018-11-11T05:25:52.621Z,10.50
2018-11-11T05:29:25.838Z,10.50
2018-11-11T05:32:59.066Z,10.50
2018-11-11T05:36:32.284Z,10.50
2018-11-11T05:40:06.569Z,10.40
2018-11-11T05:43:39.788Z,10.30
2018-11-11T05:47:13.016Z,10.30
2018-11-11T05:50:46.249Z,10.30
2018-11-11T05:54:19.467Z,10.30
2018-11-11T05:57:52.703Z,10.20
2018-11-11T06:01:25.930Z,10.20
2018-11-11T06:04:59.146Z,10.10
2018-11-11T06:08:32.379Z,10.00
2018-11-11T06:12:05.952Z,10.00
2018-11-11T06:15:39.179Z,10.00
2018-11-11T06:19:12.390Z,9.90
2018-11-11T06:22:45.617Z,9.90
2018-11-11T06:26:18.858Z,9.90
2018-11-11T06:29:52.071Z,9.90
2018-11-11T06:33:25.283Z,9.80
2018-11-11T06:36:58.796Z,9.80
2018-11-11T06:40:32.024Z,9.80
2018-11-11T06:44:05.245Z,9.80
2018-11-11T06:47:38.576Z,9.80
2018-11-11T06:51:11.862Z,9.80
2018-11-11T06:54:45.032Z,9.70
2018-11-11T06:58:18.249Z,9.70
2018-11-11T07:01:51.488Z,9.70
2018-11-11T07:05:24.699Z,9.70
2018-11-11T07:08:58.153Z,9.70
2018-11-11T07:12:31.379Z,9.80
2018-11-11T07:16:04.596Z,10.00
2018-11-11T07:19:37.824Z,10.20
2018-11-11T07:23:11.050Z,10.40
2018-11-11T07:26:44.277Z,10.50
2018-11-11T07:30:17.484Z,10.60
2018-11-11T07:33:50.721Z,10.70
2018-11-11T07:37:23.936Z,10.70
2018-11-11T07:40:57.144Z,10.80
2018-11-11T07:44:30.379Z,10.80
2018-11-11T07:48:03.693Z,10.80
2018-11-11T07:51:37.041Z,10.80
2018-11-11T07:55:11.627Z,10.90
2018-11-11T07:58:44.717Z,10.90
2018-11-11T08:02:18.018Z,11.00
2018-11-11T08:05:51.166Z,11.10
2018-11-11T08:09:24.421Z,11.20
2018-11-11T08:12:57.653Z,11.30
2018-11-11T08:16:30.951Z,11.30
2018-11-11T08:20:04.281Z,11.30
2018-11-11T08:23:37.532Z,11.30
2018-11-11T08:27:10.759Z,11.40
2018-11-11T08:30:44.015Z,11.40
2018-11-11T08:34:17.553Z,11.40
2018-11-11T08:37:50.787Z,11.40
2018-11-11T08:41:24.035Z,11.40
2018-11-11T08:44:57.280Z,11.50
2018-11-11T08:48:30.594Z,11.60
2018-11-11T08:52:03.819Z,11.70
2018-11-11T08:55:37.136Z,11.80
2018-11-11T08:59:10.801Z,11.90
2018-11-11T09:02:44.023Z,11.90
2018-11-11T09:06:17.244Z,12.00
2018-11-11T09:09:50.499Z,12.10
2018-11-11T09:13:23.739Z,12.00
2018-11-11T09:16:56.964Z,12.00
2018-11-11T09:20:30.184Z,11.90
2018-11-11T09:24:03.412Z,11.90
2018-11-11T09:27:36.688Z,11.80
2018-11-11T09:31:09.916Z,11.70
2018-11-11T09:34:43.153Z,11.80
2018-11-11T09:38:16.374Z,11.80
2018-11-11T09:41:49.620Z,11.80
2018-11-11T09:45:22.861Z,11.80
2018-11-11T09:48:56.094Z,11.80
2018-11-11T09:52:29.330Z,11.90
2018-11-11T09:56:02.544Z,11.90
2018-11-11T09:59:35.813Z,12.00
2018-11-11T10:03:12.885Z,12.10
2018-11-11T10:06:58.130Z,12.30
2018-11-11T10:10:46.184Z,12.40
2018-11-11T10:14:23.779Z,12.60
2018-11-11T10:18:18.072Z,12.70
2018-11-11T10:21:56.420Z,12.70
2018-11-11T10:25:35.868Z,12.70
2018-11-11T10:31:17.957Z,13.00
2018-11-11T10:34:55.784Z,13.00
2018-11-11T10:38:34.737Z,12.90
2018-11-11T10:44:17.354Z,12.90
2018-11-11T10:47:55.588Z,13.00
2018-11-11T10:51:28.829Z,13.10
2018-11-11T10:55:02.074Z,13.10
2018-11-11T10:58:35.320Z,13.10
2018-11-11T11:02:13.902Z,13.10
2018-11-11T11:05:47.199Z,13.20
2018-11-11T11:09:21.180Z,13.30
2018-11-11T11:12:54.432Z,13.30
2018-11-11T11:16:27.675Z,13.40
2018-11-11T11:20:01.749Z,13.40
2018-11-11T11:23:34.993Z,13.40
2018-11-11T11:27:08.295Z,13.40
2018-11-11T11:30:41.553Z,13.30
2018-11-11T11:34:14.792Z,13.30
2018-11-11T11:37:48.060Z,13.20
2018-11-11T11:41:21.442Z,13.20
2018-11-11T11:44:54.608Z,13.30
2018-11-11T11:48:27.837Z,13.40
2018-11-11T11:52:01.123Z,13.50
2018-11-11T11:55:34.294Z,13.60
2018-11-11T11:59:07.643Z,13.60
2018-11-11T12:02:41.145Z,13.70
2018-11-11T12:06:14.399Z,13.80
2018-11-11T12:09:47.642Z,14.00
2018-11-11T12:13:20.887Z,14.00
2018-11-11T12:16:54.166Z,14.10
2018-11-11T12:20:27.352Z,14.20
2018-11-11T12:24:00.597Z,14.30
2018-11-11T12:27:33.854Z,14.40
2018-11-11T12:31:07.065Z,14.40
2018-11-11T12:34:40.305Z,14.50
2018-11-11T12:38:13.546Z,14.60
2018-11-11T12:41:46.760Z,14.60
2018-11-11T12:45:20.034Z,14.60
2018-11-11T12:48:53.269Z,14.60
2018-11-11T12:52:26.485Z,14.60
2018-11-11T12:55:59.705Z,14.60
2018-11-11T12:59:32.938Z,14.50
2018-11-11T13:03:06.193Z,14.50
2018-11-11T13:06:39.487Z,14.40
2018-11-11T13:10:13.565Z,14.50
2018-11-11T13:13:46.848Z,14.60
2018-11-11T13:17:20.034Z,14.80
2018-11-11T13:20:53.273Z,15.00
2018-11-11T13:24:26.505Z,15.00
2018-11-11T13:27:59.748Z,15.00
2018-11-11T13:31:33.505Z,15.00
2018-11-11T13:35:07.899Z,14.90
2018-11-11T13:38:41.218Z,14.90
2018-11-11T13:42:14.359Z,14.90
2018-11-11T13:45:47.589Z,15.00
2018-11-11T13:49:20.877Z,15.10
2018-11-11T13:52:54.097Z,15.20
2018-11-11T13:56:27.333Z,15.20
2018-11-11T14:00:00.623Z,15.30
2018-11-11T14:03:33.993Z,15.30
2018-11-11T14:07:07.314Z,15.40
2018-11-11T14:10:40.678Z,15.50
2018-11-11T14:14:13.887Z,15.50
2018-11-11T14:17:47.712Z,15.50
2018-11-11T14:21:21.253Z,15.60
2018-11-11T14:24:54.598Z,15.60
2018-11-11T14:32:23.423Z,15.50
2018-11-11T14:35:56.650Z,15.40
2018-11-11T14:39:29.837Z,15.30
2018-11-11T14:43:03.105Z,15.20
2018-11-11T14:46:36.465Z,15.10
2018-11-11T14:50:11.118Z,15.00
2018-11-11T14:53:44.354Z,14.90
2018-11-11T14:57:17.624Z,14.80
2018-11-11T15:00:51.082Z,14.70
2018-11-11T15:04:25.773Z,14.60
2018-11-11T15:07:59.225Z,14.50
2018-11-11T15:11:32.548Z,14.40
2018-11-11T15:15:08.744Z,14.20
2018-11-11T15:18:42.212Z,14.10
2018-11-11T15:22:15.441Z,14.00
2018-11-11T15:25:48.681Z,13.90
2018-11-11T15:29:21.938Z,13.80
2018-11-11T15:32:55.946Z,13.80
2018-11-11T15:36:29.193Z,13.80
2018-11-11T15:40:02.705Z,13.80
2018-11-11T15:43:35.941Z,13.80
2018-11-11T15:47:09.413Z,13.80
2018-11-11T15:50:42.650Z,13.80
2018-11-11T15:54:16.287Z,13.80
2018-11-11T15:57:49.533Z,13.80
2018-11-11T16:01:22.758Z,13.80
2018-11-11T16:04:55.991Z,13.80
2018-11-11T16:08:29.227Z,13.80
2018-11-11T16:12:02.453Z,13.80
2018-11-11T16:15:37.873Z,13.70
2018-11-11T16:19:11.121Z,13.70
2018-11-11T16:22:45.722Z,13.70
2018-11-11T16:26:19.051Z,13.70
2018-11-11T16:29:52.348Z,13.70
2018-11-11T16:33:25.741Z,13.70
2018-11-11T16:36:58.976Z,13.70
2018-11-11T16:40:34.567Z,13.70
2018-11-11T16:44:07.792Z,13.60
2018-11-11T16:47:41.075Z,13.60
2018-11-11T16:51:14.359Z,13.60
2018-11-11T16:54:47.541Z,13.60
2018-11-11T16:58:20.786Z,13.60
2018-11-11T17:01:53.996Z,13.60
2018-11-11T17:05:28.604Z,13.60
2018-11-11T17:09:01.840Z,13.60
2018-11-11T17:12:35.064Z,13.60
2018-11-11T17:16:08.308Z,13.60
2018-11-11T17:19:41.541Z,13.60
2018-11-11T17:23:14.829Z,13.50
2018-11-11T17:26:48.052Z,13.50
2018-11-11T17:30:22.679Z,13.50
2018-11-11T17:33:55.873Z,13.50
2018-11-11T17:37:29.084Z,13.40
2018-11-11T17:41:02.317Z,13.40
2018-11-11T17:44:35.563Z,13.40
2018-11-11T17:48:08.785Z,13.40
2018-11-11T17:51:42.103Z,13.30
2018-11-11T17:55:16.964Z,13.30
2018-11-11T17:58:50.256Z,13.30
2018-11-11T18:02:23.504Z,13.30
2018-11-11T18:05:56.726Z,13.20
2018-11-11T18:09:29.951Z,13.20
2018-11-11T18:13:03.156Z,13.10
2018-11-11T18:16:36.385Z,13.10
2018-11-11T18:20:12.330Z,13.00
2018-11-11T18:23:45.574Z,12.90
2018-11-11T18:27:18.877Z,12.80
2018-11-11T18:30:52.060Z,12.70
2018-11-11T18:34:25.368Z,12.70
2018-11-11T18:37:58.610Z,12.60
2018-11-11T18:41:31.820Z,12.50
2018-11-11T18:45:06.637Z,12.50
2018-11-11T18:48:39.864Z,12.50
2018-11-11T18:52:13.101Z,12.50
2018-11-11T18:55:46.341Z,12.40
2018-11-11T18:59:19.715Z,12.50
2018-11-11T19:02:53.568Z,12.40
2018-11-11T19:06:28.754Z,12.40
2018-11-11T19:10:02.061Z,12.30
2018-11-11T19:13:35.262Z,12.30
2018-11-11T19:17:08.487Z,12.20
2018-11-11T19:20:41.743Z,12.10
2018-11-11T19:24:15.210Z,12.00
2018-11-11T19:27:49.703Z,12.00
2018-11-11T19:31:22.871Z,11.90
2018-11-11T19:34:56.182Z,11.90
2018-11-11T19:38:29.412Z,11.90
2018-11-11T19:42:02.698Z,11.90
2018-11-11T19:45:35.890Z,12.00
2018-11-11T19:49:09.124Z,12.00
2018-11-11T19:52:43.976Z,12.10
2018-11-11T19:56:17.221Z,12.10
2018-11-11T19:59:50.511Z,12.20
2018-11-11T20:03:23.736Z,12.20
2018-11-11T20:06:56.973Z,12.20
2018-11-11T20:10:30.684Z,12.20
2018-11-11T20:14:03.924Z,12.10
2018-11-11T20:17:37.449Z,12.00
2018-11-11T20:21:10.624Z,11.90
2018-11-11T20:24:43.867Z,11.90
2018-11-11T20:28:17.983Z,11.80
2018-11-11T20:31:51.215Z,11.80
2018-11-11T20:35:25.878Z,11.70
2018-11-11T20:38:59.101Z,11.70
2018-11-11T20:42:32.325Z,11.70
2018-11-11T20:46:05.680Z,11.70
2018-11-11T20:49:39.032Z,11.60
2018-11-11T20:53:12.264Z,11.60
2018-11-11T20:56:45.646Z,11.60
2018-11-11T21:00:20.184Z,11.60
2018-11-11T21:03:53.500Z,11.50
2018-11-11T21:07:26.660Z,11.50
2018-11-11T21:11:00.794Z,11.50
2018-11-11T21:14:34.087Z,11.50
2018-11-11T21:18:07.487Z,11.40
2018-11-11T21:21:41.057Z,11.40
2018-11-11T21:25:14.578Z,11.40
2018-11-11T21:28:47.843Z,11.40
2018-11-11T21:32:21.294Z,11.40
2018-11-11T21:35:54.553Z,11.40
2018-11-11T21:39:27.888Z,11.40
2018-11-11T21:43:01.128Z,11.40
2018-11-11T21:46:34.337Z,11.40
2018-11-11T21:50:09.572Z,11.50
2018-11-11T21:53:42.873Z,11.50
2018-11-11T21:57:16.111Z,11.50
2018-11-11T22:00:49.368Z,11.40
2018-11-11T22:04:22.620Z,11.40
2018-11-11T22:07:55.851Z,11.40
2018-11-11T22:11:29.103Z,11.40
2018-11-11T22:15:02.292Z,11.50
2018-11-11T22:18:35.890Z,11.50
2018-11-11T22:22:09.148Z,11.50
2018-11-11T22:25:42.384Z,11.50
2018-11-11T22:29:15.980Z,11.60
2018-11-11T22:32:49.288Z,11.60
2018-11-11T22:36:22.509Z,11.60
2018-11-11T22:39:55.728Z,11.60
2018-11-11T22:43:28.938Z,11.60
2018-11-11T22:47:02.151Z,11.50
2018-11-11T22:50:35.383Z,11.50
2018-11-11T22:54:08.611Z,11.50
2018-11-11T22:57:42.488Z,11.50
2018-11-11T23:01:20.781Z,11.50
2018-11-11T23:04:53.963Z,11.50
2018-11-11T23:08:27.228Z,11.50
2018-11-11T23:12:00.450Z,11.60
2018-11-11T23:15:33.665Z,11.60
2018-11-11T23:19:06.885Z,11.70
2018-11-11T23:22:40.509Z,11.70
2018-11-11T23:26:13.746Z,11.60
2018-11-11T23:29:47.276Z,11.60
2018-11-11T23:33:20.504Z,11.50
2018-11-11T23:36:53.771Z,11.50
2018-11-11T23:40:26.992Z,11.40
2018-11-11T23:44:00.210Z,11.40
2018-11-11T23:47:33.488Z,11.40
2018-11-11T23:51:06.720Z,11.40
2018-11-11T23:54:39.945Z,11.40
2018-11-11T23:58:13.160Z,11.40
